Kristoffer Lustig

Chefscout - Kalmar FF
5 Mär 2028
Sonntag
Verarbeitung

Persönlichkeit

Anpassungsfähigkeit (2) Ehrgeiz (2) Kontroverse (16) Loyalität (1) Druck (10) Professionalität (2) Fairness (11) Temperament (8)

Profil

Trainerstil Demokratisch
Lizenz Kontinentale A
Entschlossenheit 7
Menschenführung 10
Motivation 11
Disziplin 11
Arbeitszufriedenheit
100%
Ermüdung
0%
Rolle Chefscout
Gehalt 38.4K p/W
Vertrag 14.03.2029

Leistung

Verhalten Gut
Trainingseffektivität
30%
Spielerentwicklung
20%
Verletzungsprävention
30%
Taktische Umsetzung
35%

Letzte Ereignisse

Nahm an einer Scouting-Besprechung teil 7T her
Nahm an einer Scouting-Besprechung teil 7T her
Nahm an einer Scouting-Besprechung teil 7T her
Nahm an einer Scouting-Besprechung teil 14T her
Nahm an einer Scouting-Besprechung teil 21T her
Empfahl ein Transferziel 21T her
Nahm an einer Scouting-Besprechung teil 28T her
Legte dem Vorstand ein Dossier vor 28T her

Aktuell beobachtet

122
Spieler Verein Status Fähigkeit Vertrauen Beobachtet Zuletzt beobachtet Letzte Stimme
Anton Höög Malmo FF Verloren 90 / 95 65% 1 01.02.2028 Befürworten
Oli McBurnie Hull City Aktiv 136 / 127 40% 1 22.02.2027 -
Sam Greenwood Bristol City Aktiv 116 / 125 40% 2 16.02.2027 -
Giacomo Zecca Torres Aktiv 101 / 112 40% 1 16.02.2027 -
Oleh Kozhushko Bukovyna Aktiv 109 / 117 40% 1 30.01.2027 -
Elijah Adebayo Luton Town Aktiv 129 / 122 40% 1 30.01.2027 -
Evidence Makgopa Orlando Pirates Aktiv 104 / 124 40% 1 29.01.2027 -
Aune Heggebø West Bromwich Albion Aktiv 135 / 133 40% 2 28.01.2027 -
Ivan Pakholiuk Kolos Aktiv 106 / 114 40% 2 26.01.2027 -
John McAtee Leyton Orient Aktiv 111 / 106 40% 1 26.01.2027 -
Will Dennis Milton Keynes Dons Aktiv 111 / 105 40% 1 26.01.2027 -
Martin Melichar Pribram Aktiv 90 / 96 40% 1 24.01.2027 -
Leonardo Marson Gubbio Aktiv 107 / 104 40% 1 24.01.2027 -
Giorgi Kvernadze Frosinone Aktiv 132 / 126 40% 2 22.01.2027 -
Sam Nombe Milton Keynes Dons Aktiv 101 / 117 40% 2 21.01.2027 -
Yeangel Montero Naxxar Lions Aktiv 105 / 96 40% 3 18.01.2027 -
Andri Guðjohnsen Blackburn Rovers Aktiv 132 / 116 40% 1 18.01.2027 -
Peter Valjent FK Senica Aktiv 120 / 112 40% 3 17.01.2027 -
Malik Mothersille Stockport County Aktiv 122 / 121 40% 3 16.01.2027 -
Samuel Kalu Botev Plovdiv Aktiv 111 / 111 40% 1 16.01.2027 -
Armstrong Oko-Flex Levski Aktiv 106 / 113 40% 3 15.01.2027 -
Aaron Drinan Swindon Town Aktiv 97 / 105 40% 1 15.01.2027 -
Matty Stevens AFC Wimbledon Aktiv 111 / 100 40% 1 13.01.2027 -
Callum O'Hare Sheffield United Aktiv 131 / 130 40% 1 13.01.2027 -
Francesco D'Alterio Ternana Aktiv 101 / 105 40% 1 11.01.2027 -
Rodrigo Morínigo Debrecen Aktiv 127 / 134 40% 2 06.01.2027 -
Sam Bell Bristol City Aktiv 115 / 114 40% 1 06.01.2027 -
Zach Hemming Chesterfield Aktiv 98 / 102 40% 1 06.01.2027 -
Viktor Johansson Stoke City Aktiv 138 / 127 40% 2 05.01.2027 Mehr Infos nötig
Killian Cahill Leyton Orient Aktiv 96 / 107 40% 1 05.01.2027 -
Murphy Cooper Plymouth Argyle Aktiv 121 / 108 40% 1 04.01.2027 Mehr Infos nötig
Ilyas Ansah Hull City Aktiv 125 / 140 40% 2 31.12.2026 -
Richard Koné Queens Park Rangers Aktiv 125 / 131 40% 1 31.12.2026 -
Mohamed Konaté Akhmat Grozny Aktiv 107 / 121 40% 2 30.12.2026 -
Vladislav Blănuţă Lechia Aktiv 126 / 121 40% 3 29.12.2026 -
Mohamed-Ali Cho Hull City Aktiv 144 / 133 40% 1 27.12.2026 -
Yousef Salech Cardiff City Aktiv 123 / 123 40% 2 26.12.2026 -
José Martínes CSKA 1948 Aktiv 118 / 113 40% 1 26.12.2026 -
Wandile Duba ASO Chlef Aktiv 94 / 115 40% 1 23.12.2026 -
Bohdan Viunnyk Lechia Aktiv 120 / 102 40% 3 22.12.2026 -
Yurii-Volodymyr Hereta Rukh Aktiv 92 / 102 40% 2 21.12.2026 -
Oleh Bilyk Epicentr Aktiv 97 / 114 40% 2 21.12.2026 -
Vyacheslav Grulev Nizhniy Novgorod Aktiv 114 / 116 40% 1 21.12.2026 -
Patrick Cutrone Monza Aktiv 126 / 123 40% 1 21.12.2026 -
Filip Kubala Banik Ostrava Aktiv 128 / 128 40% 1 17.12.2026 -
Lorent Tolaj Plymouth Argyle Aktiv 125 / 114 40% 1 17.12.2026 -
Nathan Trott Cardiff City Aktiv 116 / 122 40% 1 15.12.2026 -
Luca Gemello Perugia Aktiv 116 / 118 40% 1 10.12.2026 -
Jan Bačkovský Dukla Prague Aktiv 108 / 109 40% 1 10.12.2026 -
Fran Vieites Walsall Aktiv 119 / 117 40% 1 09.12.2026 -
Luka Gavran Toronto FC Aktiv 109 / 115 40% 1 04.12.2026 -
Ondřej Lingr Korona Aktiv 118 / 134 40% 3 02.12.2026 -
Dejan Joveljić Seattle Sounders Aktiv 131 / 122 40% 1 02.12.2026 -
Egas Cacintura Akhmat Grozny Aktiv 116 / 129 40% 1 01.12.2026 -
Jakub Kadák Dukla Prague Aktiv 123 / 107 40% 1 01.12.2026 -
Erick Dolly Black Aces Aktiv 99 / 115 40% 2 30.11.2026 -
Paulos Abraham Hammarby Aktiv 125 / 116 40% 2 30.11.2026 -
Oscar Hedvall Valerenga Aktiv 119 / 113 40% 1 30.11.2026 -
Matej Trusa DAC Dunajska Streda Aktiv 103 / 125 40% 2 27.11.2026 -
Chinedu Geoffrey Krylya Sovetov Aktiv 127 / 118 40% 1 26.11.2026 -
Martin Trnovský Podbrezova Aktiv 113 / 117 40% 1 26.11.2026 -
Stephen Humphrys Bradford City Aktiv 119 / 118 40% 1 24.11.2026 -
Luka Baš Koper Aktiv 90 / 96 40% 1 24.11.2026 -
Timur Kraikov Sokol Aktiv 79 / 102 40% 1 24.11.2026 -
Germán Berterame Inter Miami CF Aktiv 141 / 135 40% 2 21.11.2026 -
Andrii Kozhukhar Veres Aktiv 102 / 104 40% 1 20.11.2026 -
Roman Celentano FC Cincinnati Aktiv 126 / 118 40% 1 20.11.2026 -
Isaac Matondo Koper Aktiv 105 / 116 40% 1 19.11.2026 -
Adam Jakubech MFK Michalovce Aktiv 119 / 106 40% 2 17.11.2026 -
Gladson Amoah Liberty Professionals Aktiv 101 / 88 40% 1 17.11.2026 -
Andrei Vlad Petrolul Aktiv 104 / 99 40% 1 15.11.2026 -
Visar Bekaj Tirana Aktiv 117 / 105 40% 1 14.11.2026 -
Rustam Yatimov Rostov Aktiv 124 / 120 40% 1 14.11.2026 -
Etiosa Ighodaro Kaizer Chiefs Aktiv 114 / 124 40% 2 13.11.2026 -
Luke Southwood Bristol Rovers Aktiv 97 / 112 40% 1 12.11.2026 -
Đorđe Nikolić Cukaricki Aktiv 122 / 110 40% 1 12.11.2026 -
Morgan Guilavogui Real Salt Lake Aktiv 129 / 114 40% 3 09.11.2026 -
David Ankeye Zeleznicar Pancevo Aktiv 105 / 120 40% 1 08.11.2026 -
Sead Hakšabanović Malmo FF Aktiv 116 / 122 40% 1 07.11.2026 -
Lazar Tufegdžić Cukaricki Aktiv 124 / 104 40% 1 06.11.2026 -
Driton Camaj Novi Pazar Aktiv 115 / 103 40% 1 05.11.2026 -
Obilor Okeke Hammarby Aktiv 116 / 124 40% 1 04.11.2026 -
Volodymyr Makhankov Vorskla Aktiv 97 / 85 40% 1 02.11.2026 -
Davor Matijaš HNK Gorica Aktiv 101 / 111 40% 1 02.11.2026 -
Diego García Malmo FF Aktiv 117 / 120 40% 3 01.11.2026 -
Tim Rönning Halmstad Aktiv 118 / 105 40% 1 31.10.2026 -
Abraham Rodriguez AZAL Aktiv 79 / 75 40% 1 31.10.2026 -
David Miculescu FCSB Aktiv 125 / 110 40% 3 28.10.2026 -
Vukašin Bogdanović Radnik Surdulica Aktiv 121 / 104 40% 1 25.10.2026 -
João Valido Chaves Aktiv 116 / 113 40% 1 25.10.2026 -
Kristian Strømland Lien Djurgarden Aktiv 121 / 125 40% 3 22.10.2026 -
Dragan Rosić Vojvodina Aktiv 98 / 114 40% 1 21.10.2026 -
Victor Olatunji Real Salt Lake Aktiv 130 / 120 40% 1 20.10.2026 -
Kwadwo Duah Ludogorets Aktiv 137 / 133 40% 1 18.10.2026 -
Petar Musa FC Dallas Aktiv 128 / 152 40% 4 15.10.2026 -
Brandon Vázquez Austin FC Aktiv 111 / 119 40% 1 14.10.2026 -
Mustapha Sangaré Levski Aktiv 118 / 111 40% 1 13.10.2026 -
Frederik Ihler IF Elfsborg Aktiv 121 / 118 40% 2 12.10.2026 -
Daniel Karlsbakk Sarpsborg 08 Aktiv 117 / 131 40% 1 10.10.2026 -
Tadeo Allende Inter Miami CF Aktiv 125 / 121 40% 1 08.10.2026 -
Mihael Mlinarić Zaglebie Aktiv 106 / 110 40% 1 07.10.2026 -
Albin Andersson Falkenberg Aktiv 98 / 106 40% 1 06.10.2026 -
Omar Faraj Halmstad Aktiv 100 / 112 40% 1 05.10.2026 -
Dávid Ďuriš Rosenborg Aktiv 128 / 120 40% 1 04.10.2026 -
Martín Ojeda Orlando City Aktiv 144 / 141 40% 1 04.10.2026 -
Nathan Ordaz DC United Aktiv 113 / 112 40% 1 30.09.2026 -
Max Fenger Helsingborg Aktiv 131 / 116 40% 1 29.09.2026 -
Wessam Abou Ali Columbus Crew Aktiv 142 / 120 40% 2 26.09.2026 -
Alexander Aravena Portland Timbers Aktiv 113 / 120 40% 1 23.09.2026 -
Krisztofer Horváth Ujpest Aktiv 115 / 102 40% 1 22.09.2026 -
Duncan McGuire Houston Dynamo Aktiv 138 / 112 40% 1 21.09.2026 -
Ajdin Zeljković Halmstad Aktiv 110 / 101 40% 1 20.09.2026 -
Cheikh Sabaly Vancouver Whitecaps Aktiv 119 / 136 40% 1 19.09.2026 -
Petter Nosa Dahl Rapid Wien Aktiv 123 / 127 40% 1 19.09.2026 -
Ramiro Ruiz Rodríguez Atlético Tucumán Aktiv 128 / 115 40% 1 13.09.2026 -
Enes Ünal Getafe Aktiv 131 / 142 40% 1 13.09.2026 -
Dayne St. Clair Inter Miami CF Aktiv 119 / 126 40% 1 13.09.2026 -
Egoitz Arana Real Sociedad Aktiv 107 / 95 40% 1 13.09.2026 -
Kévin Denkey FC Cincinnati Aktiv 112 / 137 40% 1 10.09.2026 -
Diego Enríquez Sporting Cristal Aktiv 115 / 130 40% 1 10.09.2026 -
Erick Mabunda Platinum Stars Aktiv 86 / 79 40% 1 09.09.2026 -
Franco Carretero Deportivo Lara Aktiv 88 / 93 40% 1 09.09.2026 -